Other Surface Observations
Issued by NWS Great Falls, MT

Home | Current Version | Previous Version | Text Only | Print | Product List | Glossary On
Versions: 1 2 3 4 5 6 7 8 9 10 11 12 13 14 15 16 17 18 19 20 21 22 23 24 25 26 27 28 29 30 31 32 33 34 35 36 37 38 39 40 41 42 43 44 45 46 47 48 49 50
000
SXUS55 KTFX 220429
OSOTFX
AREA AWOS OBSERVATIONS
NATIONAL WEATHER SERVICE GREAT FALLS MT
0929 PM MST TUE NOV 21 2017

METAR KPWD 220430Z AUTO 00000KT 10SM M11/M17 A3011 RMK PLENTYWOOD
METAR KPO1 220430Z AUTO 00000KT 10SM M10/M16 A3012 RMK POPLAR
METAR K1S3 220430Z AUTO 00000KT M02/M03 A3010 RMK FORSYTH
METAR KS71 220430Z AUTO 09007KT 10SM M06/M11 A2998 RMK CHINOOK
METAR K38S 220430Z AUTO 00000KT 10SM 01/M01 A3016 RMK DEER LODGE
METAR K3U3 220430Z AUTO 18010G19KT 10SM 08/02 A3015 RMK ANACONDA
METAR K6S5 220430Z AUTO 17014KT 10SM 09/06 A3016 RMK HAMILTON
METAR KS59 220430Z AUTO 00000KT 2 1/2SM 02/02 A3006 RMK LIBBY
METAR K88M 220430Z AUTO 10SM 05/02 A3002 RMK EUREKA



USA.gov is the U.S. government's official web portal to all federal, state and local government web resources and services.